Time;durP1;ratioP1;P1;durP2;ratioP2;P2;SDS_P1;SDS_P2;PMS_P1;PMS_P2;Temp;Humidity;BMP_temperature;BMP_pressure;BME280_temperature;BME280_humidity;BME280_pressure;Samples;Min_cycle;Max_cycle;Signal;HPM_P1;HPM_P2
2021/06/13 00:01:34;;;;;;;6.80;5.30;;;13.60;99.90;;;;;;5112107;28;20265;-60
2021/06/13 00:04:02;;;;;;;6.75;6.00;;;13.50;99.90;;;;;;5104749;28;20252;-60
2021/06/13 00:06:30;;;;;;;7.15;6.43;;;13.50;99.90;;;;;;5111213;28;20276;-61
2021/06/13 00:08:57;;;;;;;6.63;5.80;;;13.50;99.90;;;;;;5100931;28;20268;-61
2021/06/13 00:11:24;;;;;;;6.47;4.85;;;13.40;99.90;;;;;;5102118;28;20691;-60
2021/06/13 00:13:52;;;;;;;6.45;5.35;;;13.40;99.90;;;;;;5102321;28;20235;-61
2021/06/13 00:16:19;;;;;;;5.50;4.90;;;13.40;99.90;;;;;;5109350;28;20233;-60
2021/06/13 00:18:47;;;;;;;6.25;5.53;;;13.40;99.90;;;;;;5102447;28;20269;-61
2021/06/13 00:21:15;;;;;;;9.05;6.30;;;13.40;99.90;;;;;;5100360;28;20505;-61
2021/06/13 00:23:43;;;;;;;7.13;5.60;;;13.40;99.90;;;;;;5115446;28;20227;-58
2021/06/13 00:26:17;;;;;;;8.43;6.82;;;13.30;99.90;;;;;;5109549;28;20677;-59
2021/06/13 00:28:44;;;;;;;5.63;5.13;;;13.30;99.90;;;;;;5112193;28;20297;-59
2021/06/13 00:31:12;;;;;;;8.73;7.90;;;13.40;99.90;;;;;;5107079;28;20261;-59
2021/06/13 00:33:39;;;;;;;7.43;6.10;;;13.40;99.90;;;;;;5112381;28;20219;-59
2021/06/13 00:36:06;;;;;;;7.05;6.20;;;13.40;99.90;;;;;;5115223;28;20228;-59
2021/06/13 00:38:34;;;;;;;6.43;5.63;;;13.40;99.90;;;;;;5116472;28;20528;-60
2021/06/13 00:41:02;;;;;;;6.13;5.55;;;13.40;99.90;;;;;;5114225;28;20205;-61
2021/06/13 00:43:29;;;;;;;7.20;5.00;;;13.40;99.90;;;;;;5117670;28;20211;-61
2021/06/13 00:45:56;;;;;;;9.02;6.07;;;13.50;99.90;;;;;;5111281;28;20216;-60
2021/06/13 00:48:23;;;;;;;12.98;6.90;;;13.40;99.90;;;;;;5115498;28;20210;-60
2021/06/13 00:50:53;;;;;;;18.27;8.88;;;13.40;99.90;;;;;;5112581;28;20194;-59
2021/06/13 00:53:21;;;;;;;7.05;6.07;;;13.50;99.90;;;;;;5114684;28;20446;-60
2021/06/13 00:55:48;;;;;;;8.60;6.32;;;13.40;99.90;;;;;;5109336;28;20213;-60
2021/06/13 00:58:15;;;;;;;7.82;6.50;;;13.50;99.90;;;;;;5114596;28;20229;-60
2021/06/13 01:00:43;;;;;;;7.60;6.78;;;13.50;99.90;;;;;;5117436;28;20206;-61
2021/06/13 01:03:11;;;;;;;8.20;6.72;;;13.50;99.90;;;;;;5116239;28;20300;-60
2021/06/13 01:05:38;;;;;;;7.30;5.55;;;13.50;99.90;;;;;;5104172;28;20205;-60
2021/06/13 01:08:23;;;;;;;5.22;4.75;;;13.40;99.90;;;;;;5104153;28;20506;-60
2021/06/13 01:11:02;;;;;;;5.45;4.95;;;13.40;99.90;;;;;;5103862;28;20276;-61
2021/06/13 01:14:00;;;;;;;4.75;3.72;;;13.30;99.90;;;;;;5111558;28;20222;-60
2021/06/13 01:16:30;;;;;;;6.20;3.67;;;13.30;99.90;;;;;;5109344;28;20406;-61
2021/06/13 01:19:03;;;;;;;5.05;4.55;;;13.40;99.90;;;;;;5114368;28;20242;-61
2021/06/13 01:21:46;;;;;;;8.77;3.45;;;13.30;99.90;;;;;;5065827;28;20207;-60
2021/06/13 01:24:58;;;;;;;6.82;3.95;;;13.30;99.90;;;;;;5061061;28;20263;-62
2021/06/13 01:27:53;;;;;;;5.03;3.70;;;13.30;99.90;;;;;;5068554;28;20215;-60
2021/06/13 01:30:25;;;;;;;4.65;3.25;;;13.20;99.90;;;;;;5070176;28;20203;-62
2021/06/13 01:32:53;;;;;;;5.00;4.50;;;13.20;99.90;;;;;;5063084;28;20305;-57
2021/06/13 01:35:24;;;;;;;5.25;3.90;;;13.20;99.90;;;;;;5074381;28;20238;-59
2021/06/13 01:37:54;;;;;;;5.82;3.70;;;14.20;99.90;;;;;;5072249;28;20238;-59
2021/06/13 01:40:27;;;;;;;3.88;3.50;;;13.00;99.90;;;;;;5068546;28;20203;-59
2021/06/13 01:42:57;;;;;;;6.15;4.88;;;13.00;99.90;;;;;;5079767;28;20195;-59
2021/06/13 01:45:29;;;;;;;5.85;3.58;;;13.00;99.90;;;;;;5079879;28;20202;-59
2021/06/13 01:47:57;;;;;;;5.00;4.47;;;13.00;99.90;;;;;;5069135;28;20596;-60
2021/06/13 01:50:28;;;;;;;7.50;4.25;;;12.90;99.90;;;;;;5078992;28;20207;-61
2021/06/13 01:52:58;;;;;;;7.32;4.55;;;12.90;99.90;;;;;;5059887;28;20222;-58
2021/06/13 01:55:26;;;;;;;6.07;4.60;;;12.80;99.90;;;;;;5067015;28;20207;-57
2021/06/13 01:57:55;;;;;;;4.53;4.13;;;12.80;99.90;;;;;;5066191;28;20226;-59
2021/06/13 02:00:22;;;;;;;4.43;4.03;;;14.30;99.90;;;;;;5073535;28;20206;-61
2021/06/13 02:02:53;;;;;;;4.45;4.15;;;12.80;99.90;;;;;;5077251;28;20218;-59
2021/06/13 02:05:23;;;;;;;6.43;4.68;;;12.80;99.90;;;;;;5078633;28;20266;-60
2021/06/13 02:07:52;;;;;;;4.50;4.10;;;12.80;99.90;;;;;;5073702;28;20240;-58
2021/06/13 02:10:22;;;;;;;5.13;4.50;;;12.80;99.90;;;;;;5075054;28;20301;-58
2021/06/13 02:12:50;;;;;;;3.92;3.47;;;12.80;99.90;;;;;;5073732;28;20284;-59
2021/06/13 02:15:20;;;;;;;4.75;3.83;;;12.70;99.90;;;;;;5074071;28;20214;-59
2021/06/13 02:17:49;;;;;;;5.15;3.90;;;12.70;99.90;;;;;;5073109;28;20257;-59
2021/06/13 02:20:22;;;;;;;5.18;4.10;;;12.70;99.90;;;;;;5088882;28;20248;-59
2021/06/13 02:22:50;;;;;;;4.90;4.00;;;12.70;99.90;;;;;;5115711;28;20209;-59
2021/06/13 02:25:24;;;;;;;9.43;5.20;;;12.70;99.90;;;;;;5116169;28;20266;-58
2021/06/13 02:28:01;;;;;;;5.00;4.38;;;12.60;99.90;;;;;;5119234;28;20208;-59
2021/06/13 02:30:39;;;;;;;4.10;3.70;;;12.50;99.90;;;;;;5116750;28;20212;-60
2021/06/13 02:33:10;;;;;;;5.22;4.72;;;12.50;99.90;;;;;;5118804;28;20560;-58
2021/06/13 02:35:41;;;;;;;4.70;4.05;;;12.40;99.90;;;;;;5116012;28;20449;-58
2021/06/13 02:38:09;;;;;;;6.20;4.25;;;12.40;99.90;;;;;;5099203;28;20233;-59
2021/06/13 02:40:36;;;;;;;6.88;4.40;;;12.40;99.90;;;;;;5100420;28;20209;-59
2021/06/13 02:43:03;;;;;;;5.60;3.72;;;12.30;99.90;;;;;;5111500;28;20209;-58
2021/06/13 02:45:31;;;;;;;4.03;3.63;;;12.30;99.90;;;;;;5098917;28;20614;-60
2021/06/13 02:47:58;;;;;;;7.55;4.20;;;12.40;99.90;;;;;;5104783;28;20590;-57
2021/06/13 02:50:27;;;;;;;4.80;4.40;;;12.40;99.90;;;;;;5119846;28;20264;-59
2021/06/13 02:53:21;;;;;;;5.10;4.68;;;12.40;99.90;;;;;;5099006;28;20205;-59
2021/06/13 02:55:58;;;;;;;5.40;3.90;;;12.40;99.90;;;;;;5099186;28;20656;-58
2021/06/13 02:58:30;;;;;;;4.63;4.32;;;12.50;99.90;;;;;;5119380;28;20240;-59
2021/06/13 03:00:58;;;;;;;9.70;4.78;;;12.70;99.90;;;;;;5104335;28;20316;-58
2021/06/13 03:03:27;;;;;;;5.32;4.82;;;12.70;99.90;;;;;;5107260;28;20209;-58
2021/06/13 03:05:56;;;;;;;4.40;4.00;;;12.70;99.90;;;;;;5105032;28;20210;-60
2021/06/13 03:08:23;;;;;;;6.32;4.32;;;12.80;99.90;;;;;;5100267;28;20213;-58
2021/06/13 03:10:52;;;;;;;7.43;4.03;;;12.60;99.90;;;;;;5111208;28;20242;-59
2021/06/13 03:13:23;;;;;;;4.95;4.40;;;12.70;99.90;;;;;;5118845;28;20233;-58
2021/06/13 03:15:52;;;;;;;6.15;3.60;;;12.70;99.90;;;;;;5106638;28;20252;-60
2021/06/13 03:18:20;;;;;;;5.43;3.78;;;12.70;99.90;;;;;;5112323;28;20651;-59
2021/06/13 03:20:50;;;;;;;4.13;3.67;;;12.80;99.90;;;;;;5099679;28;20760;-59
2021/06/13 03:23:18;;;;;;;4.60;3.45;;;12.90;99.90;;;;;;5099660;28;20213;-59
2021/06/13 03:25:47;;;;;;;13.85;4.15;;;12.90;99.90;;;;;;5100024;28;20206;-58
2021/06/13 03:28:17;;;;;;;5.50;4.13;;;13.00;99.90;;;;;;5113845;28;20496;-58
2021/06/13 03:30:45;;;;;;;4.35;3.50;;;13.00;99.90;;;;;;5101661;28;20681;-58
2021/06/13 03:33:13;;;;;;;5.05;4.28;;;13.00;99.90;;;;;;5117347;28;20205;-60
2021/06/13 03:35:41;;;;;;;3.85;3.55;;;13.00;99.90;;;;;;5098177;27;20210;-59
2021/06/13 03:38:09;;;;;;;5.35;4.15;;;13.00;99.90;;;;;;5110038;28;20229;-58
2021/06/13 03:40:36;;;;;;;5.00;3.20;;;13.10;99.90;;;;;;5112400;28;20206;-60
2021/06/13 03:43:03;;;;;;;6.20;4.25;;;12.80;99.90;;;;;;5105064;28;20210;-58
2021/06/13 03:45:31;;;;;;;3.17;2.80;;;13.30;99.90;;;;;;5111219;28;20248;-59
2021/06/13 03:47:59;;;;;;;3.35;2.83;;;13.30;99.90;;;;;;5099591;28;20392;-59
2021/06/13 03:50:27;;;;;;;8.45;3.33;;;13.30;99.90;;;;;;5103636;28;20202;-59
2021/06/13 03:52:55;;;;;;;8.55;3.33;;;13.50;99.90;;;;;;5099299;28;20533;-59
2021/06/13 03:55:22;;;;;;;3.28;2.97;;;14.00;99.90;;;;;;5102272;28;20255;-57
2021/06/13 03:57:51;;;;;;;5.22;2.70;;;14.10;99.90;;;;;;5116744;28;20229;-59
2021/06/13 04:00:18;;;;;;;4.35;2.53;;;14.20;99.90;;;;;;5116213;28;20227;-58
2021/06/13 04:02:48;;;;;;;3.03;2.72;;;14.00;99.90;;;;;;5112933;28;20203;-58
2021/06/13 04:05:17;;;;;;;4.78;3.65;;;14.00;99.90;;;;;;5098972;28;20247;-58
2021/06/13 04:07:44;;;;;;;6.45;3.20;;;14.00;99.90;;;;;;5104580;28;20247;-57
2021/06/13 04:10:16;;;;;;;12.70;3.83;;;14.70;99.90;;;;;;5109614;28;20194;-59
2021/06/13 04:12:47;;;;;;;3.78;3.47;;;13.90;99.90;;;;;;5106152;28;20290;-59
2021/06/13 04:15:15;;;;;;;8.48;2.90;;;13.80;99.90;;;;;;5114522;28;20198;-58
2021/06/13 04:17:43;;;;;;;3.05;2.75;;;13.80;99.90;;;;;;5109812;28;20523;-58
2021/06/13 04:20:11;;;;;;;6.20;2.90;;;13.80;99.90;;;;;;5107158;28;20290;-57
2021/06/13 04:22:40;;;;;;;3.17;2.88;;;14.00;99.90;;;;;;5117816;28;20255;-58
2021/06/13 04:25:09;;;;;;;8.88;3.58;;;14.40;99.90;;;;;;5116107;28;20197;-59
2021/06/13 04:27:38;;;;;;;4.55;2.90;;;14.70;99.90;;;;;;5114332;28;20212;-56
2021/06/13 04:30:08;;;;;;;4.38;2.67;;;15.00;99.90;;;;;;5114938;28;20206;-59
2021/06/13 04:32:35;;;;;;;4.95;2.67;;;15.10;99.90;;;;;;5096901;28;20582;-58
2021/06/13 04:35:04;;;;;;;3.95;2.80;;;15.30;99.90;;;;;;5099056;28;20208;-58
2021/06/13 04:37:31;;;;;;;3.33;2.20;;;15.50;99.90;;;;;;5110342;28;20297;-58
2021/06/13 04:39:58;;;;;;;8.02;2.70;;;15.70;99.90;;;;;;5112280;28;20427;-58
2021/06/13 04:42:25;;;;;;;6.35;2.17;;;15.80;99.90;;;;;;5109456;28;20216;-57
2021/06/13 04:44:52;;;;;;;4.28;2.53;;;15.70;99.90;;;;;;5097201;28;20418;-56
2021/06/13 04:47:19;;;;;;;3.45;2.22;;;15.70;99.90;;;;;;5114302;28;20709;-59
2021/06/13 04:49:49;;;;;;;3.65;2.55;;;15.70;99.90;;;;;;5107420;28;20329;-58
2021/06/13 04:52:18;;;;;;;5.13;3.17;;;15.50;99.90;;;;;;5099815;28;20519;-59
2021/06/13 04:55:06;;;;;;;1.98;1.88;;;15.40;99.90;;;;;;5098314;28;20452;-60
2021/06/13 04:57:42;;;;;;;3.20;2.90;;;15.40;99.90;;;;;;5110603;28;20552;-57
2021/06/13 05:00:10;;;;;;;3.67;2.53;;;15.50;99.90;;;;;;5114296;28;20210;-59
2021/06/13 05:02:39;;;;;;;5.05;2.55;;;15.60;99.90;;;;;;5104055;28;20206;-58
2021/06/13 05:05:07;;;;;;;3.40;3.05;;;15.60;99.90;;;;;;5108805;28;20210;-58
2021/06/13 05:07:34;;;;;;;6.50;4.10;;;15.80;99.90;;;;;;5106223;28;20211;-58
2021/06/13 05:10:02;;;;;;;8.85;4.00;;;15.80;99.90;;;;;;5104328;28;20204;-59
2021/06/13 05:12:30;;;;;;;2.70;2.50;;;15.60;99.90;;;;;;5116197;28;20511;-55
2021/06/13 05:14:57;;;;;;;4.05;2.97;;;15.60;99.90;;;;;;5119929;28;20389;-59
2021/06/13 05:17:24;;;;;;;4.13;2.80;;;15.70;99.90;;;;;;5111205;28;20232;-58
2021/06/13 05:19:51;;;;;;;4.13;2.92;;;15.60;99.90;;;;;;5107349;28;20522;-58
2021/06/13 05:22:18;;;;;;;4.13;3.80;;;15.40;99.90;;;;;;5116635;28;20202;-57
2021/06/13 05:24:45;;;;;;;6.15;3.92;;;15.30;99.90;;;;;;5116127;28;20414;-59
2021/06/13 05:27:12;;;;;;;4.95;3.58;;;14.90;99.90;;;;;;5111090;28;20238;-59
2021/06/13 05:29:39;;;;;;;5.05;4.15;;;14.80;99.90;;;;;;5117994;28;20206;-58
2021/06/13 05:32:06;;;;;;;3.55;2.88;;;14.80;99.90;;;;;;5112894;28;20216;-57
2021/06/13 05:34:33;;;;;;;4.32;3.90;;;15.00;99.90;;;;;;5120105;27;20247;-58
2021/06/13 05:37:00;;;;;;;7.25;3.40;;;15.10;99.90;;;;;;5112272;28;20431;-58
2021/06/13 05:39:30;;;;;;;5.25;4.03;;;15.30;99.90;;;;;;5118126;28;20206;-58
2021/06/13 05:41:57;;;;;;;6.18;4.45;;;15.30;99.90;;;;;;5113909;28;20260;-59
2021/06/13 05:44:25;;;;;;;6.00;4.53;;;15.30;99.90;;;;;;5118734;28;20233;-58
2021/06/13 05:46:52;;;;;;;3.40;2.90;;;15.40;99.90;;;;;;5116496;28;20497;-58
2021/06/13 05:49:19;;;;;;;6.85;4.28;;;15.40;99.90;;;;;;5106521;28;20211;-59
2021/06/13 05:51:46;;;;;;;2.85;2.40;;;15.70;99.90;;;;;;5117433;28;20264;-58
2021/06/13 05:54:12;;;;;;;5.05;2.65;;;15.80;99.90;;;;;;5118042;28;20325;-59
2021/06/13 05:56:39;;;;;;;5.80;3.78;;;16.10;99.90;;;;;;5117181;28;20260;-59
2021/06/13 05:59:07;;;;;;;2.95;2.75;;;15.80;99.90;;;;;;5116930;28;20527;-58
2021/06/13 06:01:34;;;;;;;3.00;2.30;;;15.90;99.90;;;;;;5116906;28;20550;-59
2021/06/13 06:04:01;;;;;;;4.72;3.15;;;16.20;99.90;;;;;;5110635;28;20198;-58
2021/06/13 06:06:28;;;;;;;6.30;3.53;;;16.30;99.90;;;;;;5114927;28;20203;-59
2021/06/13 06:08:55;;;;;;;4.90;3.30;;;16.30;99.90;;;;;;5102421;28;20443;-59
2021/06/13 06:11:22;;;;;;;4.60;2.67;;;16.00;99.90;;;;;;5118896;28;20446;-59
2021/06/13 06:13:53;;;;;;;3.38;2.58;;;15.80;99.90;;;;;;5119850;28;20455;-59
2021/06/13 06:16:21;;;;;;;4.00;3.03;;;16.00;99.90;;;;;;5117298;28;20488;-58
2021/06/13 06:18:48;;;;;;;3.80;2.78;;;16.30;99.90;;;;;;5110724;28;20303;-58
2021/06/13 06:21:15;;;;;;;5.40;2.70;;;16.80;99.90;;;;;;5100408;28;20475;-58
2021/06/13 06:23:42;;;;;;;3.40;2.90;;;16.90;99.90;;;;;;5119427;28;20437;-59
2021/06/13 06:26:10;;;;;;;3.00;2.80;;;16.60;99.90;;;;;;5107735;28;20494;-59
2021/06/13 06:28:37;;;;;;;2.97;2.50;;;16.60;99.90;;;;;;5099208;28;20458;-58
2021/06/13 06:31:04;;;;;;;3.13;2.93;;;16.20;99.90;;;;;;5109859;28;20420;-57
2021/06/13 06:33:32;;;;;;;3.93;3.43;;;16.80;99.90;;;;;;5119122;28;20459;-58
2021/06/13 06:35:59;;;;;;;4.87;2.70;;;17.20;99.90;;;;;;5119538;28;20442;-57
2021/06/13 06:38:26;;;;;;;2.63;2.43;;;16.70;99.90;;;;;;5118598;28;20526;-58
2021/06/13 06:40:53;;;;;;;4.65;3.08;;;16.50;99.90;;;;;;5118940;28;20441;-58
2021/06/13 06:43:20;;;;;;;4.40;4.00;;;18.00;99.90;;;;;;5119582;28;20211;-59
2021/06/13 06:45:47;;;;;;;3.00;2.53;;;16.20;99.90;;;;;;5105671;28;20666;-59
2021/06/13 06:48:14;;;;;;;4.30;2.77;;;16.30;99.90;;;;;;5119213;28;20421;-58
2021/06/13 06:50:41;;;;;;;5.40;3.67;;;16.20;99.90;;;;;;5100978;28;20441;-59
2021/06/13 06:53:09;;;;;;;4.60;3.92;;;15.80;99.90;;;;;;5098310;28;20249;-58
2021/06/13 06:55:36;;;;;;;3.10;2.80;;;15.70;99.90;;;;;;5112771;28;20202;-59
2021/06/13 06:58:03;;;;;;;3.90;2.92;;;15.80;99.90;;;;;;5106277;27;20225;-58
2021/06/13 07:00:31;;;;;;;4.53;2.80;;;15.90;99.90;;;;;;5118189;28;20251;-60
2021/06/13 07:02:58;;;;;;;4.65;3.30;;;16.00;99.90;;;;;;5104931;28;20198;-58
2021/06/13 07:05:26;;;;;;;3.43;3.13;;;16.00;99.90;;;;;;5107661;28;20218;-59
2021/06/13 07:07:53;;;;;;;3.75;3.00;;;16.30;99.90;;;;;;5105247;28;20455;-58
2021/06/13 07:10:21;;;;;;;4.30;3.28;;;16.70;99.90;;;;;;5101615;28;20493;-59
2021/06/13 07:12:48;;;;;;;8.53;2.73;;;17.10;98.80;;;;;;5115125;28;20344;-58
2021/06/13 07:15:16;;;;;;;6.23;3.83;;;17.30;98.00;;;;;;5117114;28;20509;-59
2021/06/13 07:17:43;;;;;;;3.50;2.80;;;17.40;97.80;;;;;;5107821;28;20483;-60
2021/06/13 07:20:10;;;;;;;3.70;3.40;;;17.20;97.50;;;;;;5101021;28;20478;-59
2021/06/13 07:22:39;;;;;;;3.80;2.50;;;17.20;98.70;;;;;;5110768;28;20787;-59
2021/06/13 07:25:07;;;;;;;5.27;3.30;;;17.00;98.80;;;;;;5117231;28;20530;-59
2021/06/13 07:27:37;;;;;;;4.50;3.27;;;17.20;98.50;;;;;;5108365;28;20582;-57
2021/06/13 07:30:07;;;;;;;4.70;3.10;;;17.50;98.40;;;;;;5112077;28;20752;-56
2021/06/13 07:32:35;;;;;;;14.47;3.43;;;17.60;98.20;;;;;;5107846;28;20418;-60
2021/06/13 07:35:08;;;;;;;4.60;3.73;;;17.90;98.00;;;;;;5115641;28;20571;-59
2021/06/13 07:37:35;;;;;;;5.30;3.10;;;18.40;97.90;;;;;;5117812;28;20459;-59
2021/06/13 07:40:05;;;;;;;4.10;3.47;;;19.60;94.70;;;;;;5105443;28;20706;-58
2021/06/13 07:42:32;;;;;;;3.97;3.77;;;19.30;93.80;;;;;;5106286;28;20472;-59
2021/06/13 07:44:59;;;;;;;2.90;2.70;;;18.00;95.40;;;;;;5114972;28;20446;-58
2021/06/13 07:47:30;;;;;;;4.83;4.10;;;17.80;96.90;;;;;;5111740;28;20503;-59
2021/06/13 07:49:58;;;;;;;3.87;3.43;;;18.10;96.70;;;;;;5109021;28;20790;-58
2021/06/13 07:52:26;;;;;;;4.17;3.80;;;18.30;96.50;;;;;;5101695;28;20754;-59
2021/06/13 07:54:53;;;;;;;3.60;3.30;;;18.30;95.60;;;;;;5114582;28;20423;-59
2021/06/13 07:57:20;;;;;;;3.67;3.33;;;18.80;94.80;;;;;;5114925;28;20449;-60
2021/06/13 07:59:47;;;;;;;3.57;3.37;;;18.70;95.00;;;;;;5115196;28;20436;-59
2021/06/13 08:02:15;;;;;;;4.47;4.03;;;18.50;95.30;;;;;;5108811;28;20602;-59
2021/06/13 08:04:47;;;;;;;3.70;3.40;;;19.70;93.40;;;;;;5115281;28;20446;-58
2021/06/13 08:07:14;;;;;;;4.23;3.93;;;19.70;93.10;;;;;;5113497;28;20438;-60
2021/06/13 08:09:52;;;;;;;6.23;4.53;;;19.50;92.80;;;;;;5115664;28;20606;-59
2021/06/13 08:12:20;;;;;;;4.50;4.17;;;19.00;93.80;;;;;;5110170;28;20507;-59
2021/06/13 08:14:47;;;;;;;3.97;3.77;;;18.60;94.30;;;;;;5116993;28;20435;-60
2021/06/13 08:17:14;;;;;;;4.43;3.77;;;18.20;94.10;;;;;;5104388;28;20455;-60
2021/06/13 08:19:41;;;;;;;4.17;3.87;;;18.50;94.20;;;;;;5112237;28;20664;-60
2021/06/13 08:22:26;;;;;;;8.83;5.50;;;18.60;93.20;;;;;;5113685;28;20442;-59
2021/06/13 08:24:53;;;;;;;4.67;4.27;;;18.20;94.40;;;;;;5100945;28;20420;-59
2021/06/13 08:27:20;;;;;;;4.23;3.83;;;18.20;94.90;;;;;;5107890;28;20763;-61
2021/06/13 08:29:47;;;;;;;3.43;3.23;;;18.10;94.60;;;;;;5112375;28;20465;-60
2021/06/13 08:32:14;;;;;;;6.13;3.80;;;18.80;93.40;;;;;;5116400;28;20417;-59
2021/06/13 08:34:41;;;;;;;4.13;3.73;;;18.70;92.90;;;;;;5114093;28;20451;-59
2021/06/13 08:37:09;;;;;;;3.93;3.50;;;17.90;94.30;;;;;;5116134;28;20418;-59
2021/06/13 08:39:36;;;;;;;4.53;3.70;;;17.10;94.80;;;;;;5114702;28;20483;-60
2021/06/13 08:42:04;;;;;;;3.47;3.27;;;16.70;95.90;;;;;;5114786;28;20447;-58
2021/06/13 08:44:32;;;;;;;3.50;3.20;;;16.30;96.60;;;;;;5112925;28;20960;-61
2021/06/13 08:47:01;;;;;;;6.33;3.70;;;16.20;97.30;;;;;;5115595;28;20439;-58
2021/06/13 08:49:28;;;;;;;3.23;3.03;;;16.20;97.20;;;;;;5113513;28;20646;-59
2021/06/13 08:51:55;;;;;;;5.33;4.93;;;16.50;97.20;;;;;;5111682;28;20427;-59
2021/06/13 08:54:22;;;;;;;3.60;3.20;;;16.80;96.50;;;;;;5116556;28;20445;-58
2021/06/13 08:56:50;;;;;;;5.30;3.73;;;16.40;95.50;;;;;;5115726;28;20444;-60
2021/06/13 08:59:17;;;;;;;3.47;3.10;;;17.60;94.80;;;;;;5111164;28;20479;-60
2021/06/13 09:01:44;;;;;;;3.43;3.23;;;18.10;94.10;;;;;;5115773;28;20449;-58
2021/06/13 09:04:12;;;;;;;3.80;3.60;;;19.10;93.30;;;;;;5105914;28;20439;-59
2021/06/13 09:06:39;;;;;;;3.77;3.37;;;20.10;90.60;;;;;;5107040;28;20503;-58
2021/06/13 09:09:22;;;;;;;5.40;4.33;;;20.30;90.20;;;;;;5111404;28;20469;-59
2021/06/13 09:12:16;;;;;;;4.33;4.03;;;20.80;87.40;;;;;;5109493;28;20484;-59
2021/06/13 09:14:47;;;;;;;4.27;3.87;;;20.40;87.90;;;;;;5112950;28;20440;-59
2021/06/13 09:17:19;;;;;;;4.30;3.90;;;20.10;87.30;;;;;;5116447;28;20432;-59
2021/06/13 09:20:05;;;;;;;4.50;4.27;;;19.60;88.50;;;;;;5110256;28;20464;-60
2021/06/13 09:22:33;;;;;;;3.93;3.63;;;19.30;89.40;;;;;;5116306;28;20443;-59
2021/06/13 09:25:11;;;;;;;5.00;4.13;;;19.00;89.70;;;;;;5113183;28;20440;-59
2021/06/13 09:27:40;;;;;;;4.00;3.80;;;19.00;90.70;;;;;;5108252;28;20446;-59
2021/06/13 09:30:09;;;;;;;4.43;4.10;;;19.30;90.40;;;;;;5112110;28;20461;-58
2021/06/13 09:33:12;;;;;;;4.20;3.90;;;21.20;84.60;;;;;;5115405;28;20433;-60
2021/06/13 09:35:40;;;;;;;5.30;4.83;;;22.30;79.00;;;;;;5114349;28;20463;-61
2021/06/13 09:38:25;;;;;;;5.23;4.83;;;22.40;79.90;;;;;;5114879;28;20826;-60
2021/06/13 09:41:02;;;;;;;4.80;4.47;;;21.90;80.60;;;;;;5112404;28;20499;-58
2021/06/13 09:43:44;;;;;;;4.20;3.77;;;21.10;82.90;;;;;;5115443;28;20450;-59
2021/06/13 09:46:16;;;;;;;4.47;4.17;;;20.60;83.50;;;;;;5118338;28;20405;-59
2021/06/13 09:48:50;;;;;;;4.20;4.00;;;20.00;86.30;;;;;;5113365;28;20492;-60
2021/06/13 09:51:23;;;;;;;5.57;4.70;;;19.50;89.50;;;;;;5114159;28;20490;-60
2021/06/13 09:53:55;;;;;;;4.53;4.13;;;19.40;88.50;;;;;;5111311;28;20484;-60
2021/06/13 09:56:27;;;;;;;3.70;3.50;;;18.80;90.40;;;;;;5118785;28;20494;-60
2021/06/13 09:58:57;;;;;;;5.20;4.70;;;18.50;90.90;;;;;;5107517;28;20488;-59
2021/06/13 10:01:55;;;;;;;4.30;3.87;;;18.50;91.10;;;;;;5117679;28;20474;-59
2021/06/13 10:04:30;;;;;;;3.37;3.17;;;18.40;90.20;;;;;;5112351;28;20689;-61
2021/06/13 10:07:01;;;;;;;5.40;4.23;;;18.30;91.90;;;;;;5118294;28;20705;-59
2021/06/13 10:09:36;;;;;;;4.07;3.77;;;18.70;91.50;;;;;;5116799;27;20827;-60
2021/06/13 10:12:11;;;;;;;3.40;3.30;;;18.80;90.90;;;;;;5118500;27;20462;-60
2021/06/13 10:14:39;;;;;;;4.43;4.03;;;19.00;90.70;;;;;;5116642;28;20448;-62
2021/06/13 10:17:07;;;;;;;4.03;3.67;;;18.90;90.80;;;;;;5117219;28;20427;-59
2021/06/13 10:19:42;;;;;;;4.30;3.90;;;18.60;91.40;;;;;;5115883;28;20471;-60
2021/06/13 10:22:11;;;;;;;4.10;3.80;;;18.60;91.70;;;;;;5111665;28;20923;-60
2021/06/13 10:24:42;;;;;;;5.27;3.93;;;18.90;91.60;;;;;;5115045;28;20437;-60
2021/06/13 10:27:14;;;;;;;4.27;3.97;;;18.90;91.80;;;;;;5118107;28;20507;-60
2021/06/13 10:29:44;;;;;;;4.20;3.93;;;19.10;90.60;;;;;;5118105;28;20461;-61
2021/06/13 10:32:12;;;;;;;3.47;3.27;;;19.10;90.20;;;;;;5116756;28;20442;-59
2021/06/13 10:34:39;;;;;;;4.23;4.00;;;19.00;90.10;;;;;;5112814;28;20544;-59
2021/06/13 10:37:09;;;;;;;6.70;4.43;;;18.50;90.40;;;;;;5117468;28;20436;-60
2021/06/13 10:39:37;;;;;;;4.10;3.87;;;18.40;91.90;;;;;;5112408;28;20706;-61
2021/06/13 10:42:14;;;;;;;3.87;3.57;;;18.40;91.80;;;;;;5113899;28;20759;-60
2021/06/13 10:44:53;;;;;;;4.60;4.20;;;18.50;92.30;;;;;;5118812;28;20411;-59
2021/06/13 10:47:22;;;;;;;4.13;3.83;;;18.50;92.60;;;;;;5110553;28;20456;-59
2021/06/13 10:49:55;;;;;;;4.00;3.60;;;18.40;92.40;;;;;;5118565;28;20771;-60
2021/06/13 10:52:27;;;;;;;3.63;3.43;;;18.30;92.10;;;;;;5110141;28;20413;-59
2021/06/13 10:54:56;;;;;;;4.07;3.77;;;18.20;92.10;;;;;;5117683;28;20419;-60
2021/06/13 10:57:26;;;;;;;4.47;3.90;;;18.10;93.10;;;;;;5113986;28;20447;-60
2021/06/13 10:59:56;;;;;;;3.80;3.50;;;18.20;92.00;;;;;;5118200;28;20628;-60
2021/06/13 11:02:49;;;;;;;4.43;3.80;;;18.20;92.10;;;;;;5116575;28;20648;-59
2021/06/13 11:05:34;;;;;;;6.73;4.37;;;18.10;91.70;;;;;;5116775;28;20408;-60
2021/06/13 11:08:01;;;;;;;3.57;3.33;;;18.20;91.60;;;;;;5104084;28;20851;-59
2021/06/13 11:10:33;;;;;;;6.20;3.70;;;18.20;91.80;;;;;;5116806;28;20479;-60
2021/06/13 11:13:08;;;;;;;4.10;3.70;;;18.10;91.20;;;;;;5103303;28;20414;-59
2021/06/13 11:15:38;;;;;;;4.00;3.73;;;17.90;91.00;;;;;;5116058;28;20431;-59
2021/06/13 11:18:13;;;;;;;4.47;4.03;;;17.60;91.20;;;;;;5114696;28;20977;-59
2021/06/13 11:21:01;;;;;;;4.53;4.13;;;18.60;90.50;;;;;;5113884;28;20468;-61
2021/06/13 11:23:28;;;;;;;3.27;3.07;;;18.80;90.40;;;;;;5115349;28;20412;-59
2021/06/13 11:25:58;;;;;;;4.23;4.03;;;19.10;90.70;;;;;;5114584;28;20482;-59
2021/06/13 11:28:46;;;;;;;3.60;3.40;;;19.60;89.90;;;;;;5114152;28;20412;-61
2021/06/13 11:31:13;;;;;;;3.60;3.40;;;19.40;86.60;;;;;;5115018;28;20494;-60
2021/06/13 11:33:44;;;;;;;3.43;3.33;;;19.20;87.10;;;;;;5107960;28;20434;-59
2021/06/13 11:36:17;;;;;;;4.10;3.90;;;19.40;86.40;;;;;;5111939;28;20441;-59
2021/06/13 11:38:47;;;;;;;4.33;4.13;;;19.50;84.90;;;;;;5101894;28;20493;-59
2021/06/13 11:41:42;;;;;;;4.37;4.10;;;19.40;87.10;;;;;;5099870;28;20412;-59
2021/06/13 11:44:21;;;;;;;3.97;3.77;;;19.20;90.30;;;;;;5115289;28;20411;-59
2021/06/13 11:46:53;;;;;;;4.50;4.10;;;18.70;91.30;;;;;;5114639;28;20415;-58
2021/06/13 11:49:41;;;;;;;5.83;3.93;;;18.30;91.80;;;;;;5113513;28;20528;-60
2021/06/13 11:52:08;;;;;;;4.03;3.93;;;18.20;92.50;;;;;;5116087;28;21088;-59
2021/06/13 11:54:39;;;;;;;5.03;3.60;;;17.80;92.90;;;;;;5107183;28;20498;-59
2021/06/13 11:57:13;;;;;;;4.83;3.97;;;17.60;93.20;;;;;;5111370;28;20416;-58
2021/06/13 11:59:42;;;;;;;3.50;3.30;;;17.60;93.30;;;;;;5112500;28;20475;-60
2021/06/13 12:02:11;;;;;;;3.80;3.50;;;17.40;92.50;;;;;;5115858;28;20479;-59
2021/06/13 12:04:39;;;;;;;3.30;3.10;;;17.30;92.90;;;;;;5110187;28;20618;-59
2021/06/13 12:07:13;;;;;;;3.47;3.30;;;17.20;92.70;;;;;;5115099;28;20439;-59
2021/06/13 12:09:41;;;;;;;3.73;3.43;;;17.20;92.50;;;;;;5115154;28;20508;-60
2021/06/13 12:12:10;;;;;;;3.57;3.37;;;17.20;92.10;;;;;;5117630;28;20476;-59
2021/06/13 12:14:45;;;;;;;3.60;3.27;;;17.40;92.60;;;;;;5113342;28;20467;-59
2021/06/13 12:17:22;;;;;;;3.43;3.20;;;17.60;91.40;;;;;;5113737;28;20402;-59
2021/06/13 12:20:00;;;;;;;3.60;3.40;;;17.90;91.70;;;;;;5110049;28;20467;-59
2021/06/13 12:28:06;;;;;;;4.57;4.20;;;18.80;90.00;;;;;;5108479;28;20609;-59
2021/06/13 12:30:35;;;;;;;3.60;3.30;;;18.70;90.30;;;;;;5096120;28;20449;-58
2021/06/13 12:33:10;;;;;;;3.50;3.30;;;18.60;91.40;;;;;;5109871;28;20639;-59
2021/06/13 12:35:42;;;;;;;4.37;3.93;;;18.90;90.90;;;;;;5097118;28;20434;-60
2021/06/13 12:38:17;;;;;;;4.13;3.33;;;18.50;90.80;;;;;;5103904;28;20419;-60
2021/06/13 12:40:48;;;;;;;4.10;3.83;;;18.50;91.30;;;;;;5110672;28;20826;-59
2021/06/13 12:43:16;;;;;;;3.93;3.50;;;18.50;91.70;;;;;;5099963;28;20464;-60
2021/06/13 12:45:45;;;;;;;4.37;4.00;;;18.60;91.40;;;;;;5101105;28;20763;-59
2021/06/13 12:48:13;;;;;;;3.83;3.53;;;18.60;91.10;;;;;;5110828;28;20423;-61
2021/06/13 12:50:43;;;;;;;4.67;4.13;;;18.20;91.70;;;;;;5111542;28;20486;-60
2021/06/13 12:53:15;;;;;;;4.80;4.37;;;18.00;91.90;;;;;;5111150;28;20677;-60
2021/06/13 12:55:51;;;;;;;5.10;3.90;;;18.20;91.90;;;;;;5114563;28;20644;-59
2021/06/13 12:58:21;;;;;;;3.33;3.13;;;18.20;91.70;;;;;;5113420;28;20426;-59
2021/06/13 13:00:49;;;;;;;3.43;3.20;;;18.30;91.50;;;;;;5114574;28;20476;-60
2021/06/13 13:03:18;;;;;;;3.40;3.20;;;18.00;92.10;;;;;;5114796;28;20419;-59
2021/06/13 13:06:04;;;;;;;3.67;3.37;;;18.00;92.10;;;;;;5115648;28;20479;-58
2021/06/13 13:08:47;;;;;;;3.73;3.53;;;17.80;92.10;;;;;;5104951;28;20422;-59